Time;durP1;ratioP1;P1;durP2;ratioP2;P2;SDS_P1;SDS_P2;PMS_P1;PMS_P2;Temp;Humidity;BMP_temperature;BMP_pressure;BME280_temperature;BME280_humidity;BME280_pressure;Samples;Min_cycle;Max_cycle;Signal;HPM_P1;HPM_P2
2021/03/08 00:00:24;;;;;;;2.30;1.40;;;;;;;;;;4983299;28;20515;-74
2021/03/08 00:02:50;;;;;;;3.55;1.30;;;;;;;;;;5015435;28;20029;-74
2021/03/08 00:05:16;;;;;;;2.10;1.40;;;;;;;;;;5048892;28;20037;-74
2021/03/08 00:07:41;;;;;;;2.77;1.30;;;;;;;;;;5008822;28;20079;-75
2021/03/08 00:10:07;;;;;;;2.70;1.60;;;;;;;;;;4997888;28;20041;-74
2021/03/08 00:12:33;;;;;;;2.45;1.40;;;;;;;;;;5031812;28;20025;-74
2021/03/08 00:14:58;;;;;;;2.80;1.40;;;;;;;;;;5015570;28;20092;-74
2021/03/08 00:17:24;;;;;;;2.57;1.50;;;;;;;;;;4999409;28;20063;-74
2021/03/08 00:19:49;;;;;;;1.77;1.20;;;;;;;;;;5015727;28;20483;-74
2021/03/08 00:22:14;;;;;;;2.60;1.30;;;;;;;;;;5035161;28;20445;-74
2021/03/08 00:24:39;;;;;;;2.73;1.60;;;;;;;;;;4999159;28;20514;-74
2021/03/08 00:27:05;;;;;;;3.93;1.60;;;;;;;;;;4999396;28;20139;-74
2021/03/08 00:29:30;;;;;;;3.33;1.57;;;;;;;;;;5015836;28;20063;-74
2021/03/08 00:31:56;;;;;;;2.40;1.27;;;;;;;;;;5015437;28;20117;-74
2021/03/08 00:34:21;;;;;;;1.93;1.30;;;;;;;;;;4999000;28;20037;-74
2021/03/08 00:36:46;;;;;;;2.73;1.47;;;;;;;;;;4998955;28;20042;-74
2021/03/08 00:39:12;;;;;;;2.13;1.20;;;;;;;;;;4999073;28;20065;-74
2021/03/08 00:41:37;;;;;;;2.03;1.13;;;;;;;;;;4998864;28;20108;-74
2021/03/08 00:44:03;;;;;;;2.67;1.40;;;;;;;;;;4999003;28;20065;-74
2021/03/08 00:46:29;;;;;;;2.72;1.48;;;;;;;;;;4998644;28;20041;-74
2021/03/08 00:48:54;;;;;;;2.50;1.43;;;;;;;;;;4998991;28;20108;-74
2021/03/08 00:51:19;;;;;;;2.33;1.37;;;;;;;;;;4998745;28;20484;-74
2021/03/08 00:53:45;;;;;;;2.30;1.40;;;;;;;;;;5015337;28;20085;-74
2021/03/08 00:56:10;;;;;;;2.40;1.37;;;;;;;;;;4982337;28;20098;-74
2021/03/08 00:58:35;;;;;;;2.73;1.50;;;;;;;;;;4982409;28;20076;-74
2021/03/08 01:01:01;;;;;;;2.50;1.23;;;;;;;;;;4982240;28;20060;-74
2021/03/08 01:03:26;;;;;;;2.90;1.50;;;;;;;;;;4998894;28;20048;-74
2021/03/08 01:05:51;;;;;;;2.63;1.47;;;;;;;;;;4999108;28;20124;-74
2021/03/08 01:08:17;;;;;;;2.77;1.63;;;;;;;;;;5015213;28;20030;-74
2021/03/08 01:10:42;;;;;;;2.13;1.40;;;;;;;;;;5014477;28;20049;-74
2021/03/08 01:13:07;;;;;;;2.53;1.30;;;;;;;;;;4998660;28;20075;-75
2021/03/08 01:15:33;;;;;;;2.17;1.33;;;;;;;;;;4998781;28;20539;-75
2021/03/08 01:17:58;;;;;;;3.10;1.30;;;;;;;;;;4998392;28;20465;-74
2021/03/08 01:20:23;;;;;;;3.40;1.40;;;;;;;;;;5018104;28;20061;-74
2021/03/08 01:22:49;;;;;;;2.37;1.30;;;;;;;;;;5002289;28;20032;-75
2021/03/08 01:25:16;;;;;;;3.10;1.50;;;;;;;;;;5002065;28;20049;-74
2021/03/08 01:27:41;;;;;;;3.05;1.40;;;;;;;;;;5002791;28;20057;-75
2021/03/08 01:30:09;;;;;;;2.47;1.33;;;;;;;;;;5018473;28;20036;-74
2021/03/08 01:32:34;;;;;;;2.80;1.38;;;;;;;;;;5015110;28;20175;-74
2021/03/08 01:35:00;;;;;;;2.50;1.40;;;;;;;;;;5015586;28;20081;-74
2021/03/08 01:37:25;;;;;;;2.87;1.60;;;;;;;;;;4999262;28;20084;-74
2021/03/08 01:39:50;;;;;;;3.53;1.40;;;;;;;;;;5048427;28;20065;-75
2021/03/08 01:42:16;;;;;;;2.60;1.23;;;;;;;;;;5018110;28;20065;-74
2021/03/08 01:44:41;;;;;;;2.20;1.40;;;;;;;;;;5018517;28;20116;-75
2021/03/08 01:47:06;;;;;;;2.33;1.40;;;;;;;;;;4985931;28;20041;-75
2021/03/08 01:49:32;;;;;;;2.47;1.47;;;;;;;;;;5002046;28;20038;-75
2021/03/08 01:51:57;;;;;;;2.30;1.40;;;;;;;;;;5002072;28;20128;-75
2021/03/08 01:54:22;;;;;;;1.97;1.20;;;;;;;;;;5001837;28;20530;-75
2021/03/08 01:56:48;;;;;;;3.40;1.23;;;;;;;;;;4985877;28;20496;-75
2021/03/08 01:59:13;;;;;;;2.53;1.37;;;;;;;;;;5002209;28;20034;-75
2021/03/08 02:01:38;;;;;;;2.87;1.40;;;;;;;;;;5001618;28;20060;-75
2021/03/08 02:04:04;;;;;;;2.70;1.30;;;;;;;;;;5001956;28;20038;-75
2021/03/08 02:06:29;;;;;;;1.47;1.03;;;;;;;;;;5017989;28;20037;-75
2021/03/08 02:08:54;;;;;;;2.83;1.40;;;;;;;;;;5001546;28;20116;-75
2021/03/08 02:11:20;;;;;;;2.30;1.37;;;;;;;;;;4985194;28;20068;-75
2021/03/08 02:14:22;;;;;;;2.67;1.27;;;;;;;;;;5001787;28;20041;-75
2021/03/08 02:17:02;;;;;;;2.28;1.30;;;;;;;;;;5035563;28;20049;-75
2021/03/08 02:19:54;;;;;;;2.58;1.33;;;;;;;;;;5017605;28;20088;-75
2021/03/08 02:23:07;;;;;;;3.20;1.42;;;;;;;;;;5001380;28;20476;-74
2021/03/08 02:26:09;;;;;;;2.20;1.30;;;;;;;;;;4988346;28;20541;-75
2021/03/08 02:28:46;;;;;;;2.05;1.30;;;;;;;;;;4974861;28;20046;-75
2021/03/08 02:31:18;;;;;;;;;;;;;;;;;;5005939;28;20026;-75
2021/03/08 02:33:51;;;;;;;2.28;1.40;;;;;;;;;;5012949;28;19970;-75
2021/03/08 02:36:17;;;;;;;2.53;1.30;;;;;;;;;;5010903;28;20124;-75
2021/03/08 02:38:44;;;;;;;3.60;1.50;;;;;;;;;;5000962;28;20079;-75
2021/03/08 02:41:16;;;;;;;3.22;1.50;;;;;;;;;;4985073;28;20056;-75
2021/03/08 02:43:42;;;;;;;3.20;1.52;;;;;;;;;;5001364;28;20042;-75
2021/03/08 02:46:14;;;;;;;2.92;1.50;;;;;;;;;;4984712;28;20033;-75
2021/03/08 02:48:41;;;;;;;2.03;1.13;;;;;;;;;;4985231;28;20047;-75
2021/03/08 02:51:06;;;;;;;2.95;1.50;;;;;;;;;;4984633;28;20420;-75
2021/03/08 02:53:37;;;;;;;2.23;1.20;;;;;;;;;;5001115;28;20094;-75
2021/03/08 02:56:06;;;;;;;2.67;1.45;;;;;;;;;;5017226;28;20037;-75
2021/03/08 02:58:32;;;;;;;3.15;1.60;;;;;;;;;;5001105;28;20400;-75
2021/03/08 03:00:57;;;;;;;2.55;1.48;;;;;;;;;;5000576;28;20065;-75
2021/03/08 03:03:22;;;;;;;2.37;1.40;;;;;;;;;;5000879;28;20523;-75
2021/03/08 03:05:48;;;;;;;3.17;1.37;;;;;;;;;;4984680;28;20436;-75
2021/03/08 03:08:13;;;;;;;2.60;1.50;;;;;;;;;;5000440;28;20032;-75
2021/03/08 03:10:39;;;;;;;2.50;1.57;;;;;;;;;;4984062;28;20065;-74
2021/03/08 03:13:04;;;;;;;2.80;1.70;;;;;;;;;;5000534;28;20033;-75
2021/03/08 03:15:34;;;;;;;2.27;1.30;;;;;;;;;;4984444;28;20030;-75
2021/03/08 03:17:59;;;;;;;2.78;1.50;;;;;;;;;;5000957;28;20038;-74
2021/03/08 03:20:25;;;;;;;3.37;1.60;;;;;;;;;;5000472;28;20037;-75
2021/03/08 03:22:52;;;;;;;2.90;1.60;;;;;;;;;;4999967;28;20033;-75
2021/03/08 03:25:19;;;;;;;2.75;1.40;;;;;;;;;;5000706;28;20385;-75
2021/03/08 03:27:45;;;;;;;3.15;1.42;;;;;;;;;;4984237;28;20033;-75
2021/03/08 03:30:11;;;;;;;2.40;1.30;;;;;;;;;;4984058;28;20033;-75
2021/03/08 03:32:37;;;;;;;2.93;1.60;;;;;;;;;;5000049;28;20386;-74
2021/03/08 03:35:03;;;;;;;2.17;1.30;;;;;;;;;;5000375;28;20676;-76
2021/03/08 03:37:28;;;;;;;2.40;1.48;;;;;;;;;;4984649;28;20037;-76
2021/03/08 03:39:54;;;;;;;2.47;1.40;;;;;;;;;;5000170;28;20033;-76
2021/03/08 03:42:23;;;;;;;2.20;1.37;;;;;;;;;;5000208;28;20029;-76
2021/03/08 03:44:48;;;;;;;2.80;1.60;;;;;;;;;;5000368;28;20048;-75
2021/03/08 03:47:14;;;;;;;2.50;1.53;;;;;;;;;;5000079;28;20087;-76
2021/03/08 03:49:42;;;;;;;3.57;1.40;;;;;;;;;;4999979;28;20037;-75
2021/03/08 03:52:07;;;;;;;3.08;1.50;;;;;;;;;;5000389;28;20068;-75
2021/03/08 03:54:33;;;;;;;2.53;1.50;;;;;;;;;;4999890;28;20077;-75
2021/03/08 03:57:00;;;;;;;2.63;1.50;;;;;;;;;;4999571;28;20112;-75
2021/03/08 03:59:28;;;;;;;3.15;1.50;;;;;;;;;;4983530;28;20035;-76
2021/03/08 04:02:02;;;;;;;3.15;1.63;;;;;;;;;;5000055;28;20091;-75
2021/03/08 04:04:34;;;;;;;3.30;1.60;;;;;;;;;;4999977;28;20029;-75
2021/03/08 04:06:59;;;;;;;2.67;1.50;;;;;;;;;;4983470;28;20128;-75
2021/03/08 04:09:25;;;;;;;2.53;1.47;;;;;;;;;;4999422;28;20112;-76
2021/03/08 04:11:52;;;;;;;2.47;1.37;;;;;;;;;;4983336;28;20057;-76
2021/03/08 04:14:19;;;;;;;2.88;1.50;;;;;;;;;;4983225;28;20037;-75
2021/03/08 04:16:46;;;;;;;;;;;;;;;;;;5025115;23;20049;-77
2021/03/08 04:19:14;;;;;;;;;;;;;;;;;;5065406;28;19959;-77
2021/03/08 04:21:39;;;;;;;3.00;1.35;;;;;;;;;;5078399;28;19928;-77
2021/03/08 04:24:05;;;;;;;2.37;1.30;;;;;;;;;;5048307;28;20096;-77
2021/03/08 04:26:30;;;;;;;3.33;1.70;;;;;;;;;;5031514;28;20049;-77
2021/03/08 04:28:58;;;;;;;2.40;1.37;;;;;;;;;;5043863;28;20049;-77
2021/03/08 04:31:24;;;;;;;2.90;1.67;;;;;;;;;;5074931;28;20617;-77
2021/03/08 04:33:49;;;;;;;3.53;1.70;;;;;;;;;;5047819;28;20045;-77
2021/03/08 04:36:15;;;;;;;3.17;1.60;;;;;;;;;;5052816;28;20033;-77
2021/03/08 04:38:41;;;;;;;3.70;1.60;;;;;;;;;;5083389;28;20032;-77
2021/03/08 04:41:07;;;;;;;2.53;1.50;;;;;;;;;;5042390;28;20051;-77
2021/03/08 04:43:32;;;;;;;3.33;1.80;;;;;;;;;;5044848;28;20123;-77
2021/03/08 04:45:58;;;;;;;2.60;1.33;;;;;;;;;;5066868;28;20029;-77
2021/03/08 04:48:24;;;;;;;2.07;1.33;;;;;;;;;;5049797;28;20037;-77
2021/03/08 04:50:49;;;;;;;2.35;1.30;;;;;;;;;;5054345;28;20034;-77
2021/03/08 04:53:15;;;;;;;3.37;1.67;;;;;;;;;;5065957;28;20047;-77
2021/03/08 04:55:40;;;;;;;2.50;1.47;;;;;;;;;;5029910;28;20021;-77
2021/03/08 04:58:05;;;;;;;2.93;1.57;;;;;;;;;;5045993;28;20040;-77
2021/03/08 05:00:31;;;;;;;2.87;1.70;;;;;;;;;;5031557;28;20030;-77
2021/03/08 05:02:56;;;;;;;2.47;1.50;;;;;;;;;;5061341;28;20064;-77
2021/03/08 05:05:23;;;;;;;2.67;1.63;;;;;;;;;;5058211;28;20072;-77
2021/03/08 05:07:48;;;;;;;2.65;1.60;;;;;;;;;;5062500;28;20021;-77
2021/03/08 05:10:18;;;;;;;3.40;1.97;;;;;;;;;;5060758;28;20048;-77
2021/03/08 05:12:44;;;;;;;3.08;1.50;;;;;;;;;;5068681;28;20021;-77
2021/03/08 05:15:11;;;;;;;3.53;1.80;;;;;;;;;;5064590;28;20098;-77
2021/03/08 05:17:36;;;;;;;2.25;1.40;;;;;;;;;;5050906;28;20025;-77
2021/03/08 05:20:03;;;;;;;2.93;1.53;;;;;;;;;;5029061;28;20066;-77
2021/03/08 05:22:28;;;;;;;3.20;1.42;;;;;;;;;;5046991;28;20037;-77
2021/03/08 05:24:54;;;;;;;3.43;1.60;;;;;;;;;;5061111;28;20036;-77
2021/03/08 05:27:19;;;;;;;3.23;1.43;;;;;;;;;;5060163;28;20041;-77
2021/03/08 05:29:45;;;;;;;3.07;1.70;;;;;;;;;;5027833;28;20089;-77
2021/03/08 05:32:14;;;;;;;3.03;1.58;;;;;;;;;;5045007;28;20495;-77
2021/03/08 05:34:41;;;;;;;3.83;1.75;;;;;;;;;;5037751;28;20080;-77
2021/03/08 05:37:07;;;;;;;2.95;1.50;;;;;;;;;;5061218;28;20037;-77
2021/03/08 05:39:32;;;;;;;3.30;1.50;;;;;;;;;;5045770;28;20450;-78
2021/03/08 05:42:13;;;;;;;3.43;1.53;;;;;;;;;;5028724;28;20060;-80
2021/03/08 05:44:44;;;;;;;3.00;1.65;;;;;;;;;;5065273;28;20037;-78
2021/03/08 05:47:31;;;;;;;3.90;1.85;;;;;;;;;;5034199;28;20033;-78
2021/03/08 05:50:02;;;;;;;2.97;1.40;;;;;;;;;;5048621;28;20033;-77
2021/03/08 05:52:34;;;;;;;2.72;1.58;;;;;;;;;;5048479;28;20006;-78
2021/03/08 05:55:34;;;;;;;2.88;1.63;;;;;;;;;;5050707;28;20085;-78
2021/03/08 05:58:08;;;;;;;2.40;1.40;;;;;;;;;;5072333;28;20044;-78
2021/03/08 06:00:55;;;;;;;3.10;1.73;;;;;;;;;;5063451;28;20037;-78
2021/03/08 06:03:42;;;;;;;3.58;1.60;;;;;;;;;;5031468;28;20145;-78
2021/03/08 06:06:23;;;;;;;3.42;1.60;;;;;;;;;;5048533;28;20037;-78
2021/03/08 06:09:07;;;;;;;3.13;1.73;;;;;;;;;;5067542;28;20045;-77
2021/03/08 06:11:33;;;;;;;3.03;1.40;;;;;;;;;;5063189;28;20088;-78
2021/03/08 06:13:59;;;;;;;2.90;1.60;;;;;;;;;;5044438;28;20094;-78
2021/03/08 06:16:31;;;;;;;4.03;1.93;;;;;;;;;;5029718;28;20041;-78
2021/03/08 06:18:57;;;;;;;3.35;1.70;;;;;;;;;;5055085;28;20041;-78
2021/03/08 06:21:22;;;;;;;2.67;1.60;;;;;;;;;;5052877;28;20037;-78
2021/03/08 06:23:48;;;;;;;4.27;2.00;;;;;;;;;;5048893;28;20053;-77
2021/03/08 06:26:13;;;;;;;3.40;1.53;;;;;;;;;;5064237;28;20057;-77
2021/03/08 06:28:39;;;;;;;3.53;1.90;;;;;;;;;;5076954;28;20033;-77
2021/03/08 06:31:04;;;;;;;3.67;1.80;;;;;;;;;;5048277;28;20034;-77
2021/03/08 06:33:30;;;;;;;3.47;1.90;;;;;;;;;;5048029;28;20442;-77
2021/03/08 06:36:00;;;;;;;3.27;1.83;;;;;;;;;;5048693;28;20029;-78
2021/03/08 06:38:25;;;;;;;3.28;1.80;;;;;;;;;;5071974;28;20040;-78
2021/03/08 06:40:50;;;;;;;2.87;1.70;;;;;;;;;;5066311;28;20040;-77
2021/03/08 06:43:16;;;;;;;4.20;1.80;;;;;;;;;;5058628;28;20125;-77
2021/03/08 06:45:41;;;;;;;2.87;1.70;;;;;;;;;;5043022;28;20033;-80
2021/03/08 06:48:07;;;;;;;3.33;1.70;;;;;;;;;;5038457;28;20041;-79
2021/03/08 06:50:32;;;;;;;3.50;1.87;;;;;;;;;;5051074;28;20032;-79
2021/03/08 06:52:58;;;;;;;3.40;1.73;;;;;;;;;;5084314;28;20482;-79
2021/03/08 06:55:23;;;;;;;2.90;1.63;;;;;;;;;;5044300;28;20037;-79
2021/03/08 06:57:48;;;;;;;3.03;1.70;;;;;;;;;;5047383;28;20029;-78
2021/03/08 07:00:15;;;;;;;3.40;1.90;;;;;;;;;;5067992;28;20052;-79
2021/03/08 07:02:42;;;;;;;3.13;1.75;;;;;;;;;;5061806;28;20060;-79
2021/03/08 07:05:09;;;;;;;2.60;1.60;;;;;;;;;;5077660;28;20044;-79
2021/03/08 07:08:00;;;;;;;3.05;1.75;;;;;;;;;;5079168;28;20063;-79
2021/03/08 07:10:40;;;;;;;3.00;1.70;;;;;;;;;;5058583;28;20096;-79
2021/03/08 07:13:08;;;;;;;3.30;1.70;;;;;;;;;;5052132;28;20041;-79
2021/03/08 07:15:33;;;;;;;3.40;1.90;;;;;;;;;;5077349;28;21177;-77
2021/03/08 07:17:59;;;;;;;3.07;1.70;;;;;;;;;;5056210;28;20068;-80
2021/03/08 07:20:27;;;;;;;3.27;1.63;;;;;;;;;;5058740;28;20037;-79
2021/03/08 07:22:53;;;;;;;2.97;1.77;;;;;;;;;;5064672;28;20029;-79
2021/03/08 07:25:31;;;;;;;3.10;1.80;;;;;;;;;;5090816;28;20044;-79
2021/03/08 07:27:58;;;;;;;3.47;1.80;;;;;;;;;;5085517;28;20033;-79
2021/03/08 07:30:36;;;;;;;3.53;1.90;;;;;;;;;;5068868;28;20032;-79
2021/03/08 07:33:12;;;;;;;3.55;1.70;;;;;;;;;;5037548;28;20029;-79
2021/03/08 07:35:48;;;;;;;4.63;1.67;;;;;;;;;;5063451;28;20036;-79
2021/03/08 07:38:34;;;;;;;3.55;1.90;;;;;;;;;;5036265;28;20035;-79
2021/03/08 07:41:09;;;;;;;3.15;1.80;;;;;;;;;;5029909;28;20040;-78
2021/03/08 07:43:35;;;;;;;4.20;1.83;;;;;;;;;;5046086;28;20048;-79
2021/03/08 07:46:00;;;;;;;2.80;1.77;;;;;;;;;;5044520;28;20030;-79
2021/03/08 07:48:26;;;;;;;3.67;1.83;;;;;;;;;;5032615;28;20040;-78
2021/03/08 07:50:51;;;;;;;3.17;1.70;;;;;;;;;;5046702;28;20032;-79
2021/03/08 07:53:34;;;;;;;2.93;1.70;;;;;;;;;;5061160;28;20041;-79
2021/03/08 07:56:01;;;;;;;3.40;1.48;;;;;;;;;;5044537;28;20116;-79
2021/03/08 07:58:28;;;;;;;3.42;1.80;;;;;;;;;;5051905;28;20029;-78
2021/03/08 08:00:53;;;;;;;;;;;;;;;;;;5047850;28;20044;-79
2021/03/08 08:03:19;;;;;;;3.55;1.80;;;;;;;;;;5064148;28;20398;-79
2021/03/08 08:05:44;;;;;;;3.07;1.47;;;;;;;;;;5064310;28;20037;-79
2021/03/08 08:08:09;;;;;;;2.90;1.73;;;;;;;;;;5065449;28;20119;-79
2021/03/08 08:10:35;;;;;;;3.30;1.80;;;;;;;;;;5047128;28;20033;-79
2021/03/08 08:13:03;;;;;;;2.87;1.60;;;;;;;;;;5059317;28;20080;-79
2021/03/08 08:15:29;;;;;;;3.00;1.55;;;;;;;;;;5043065;28;20029;-79
2021/03/08 08:17:55;;;;;;;2.80;1.63;;;;;;;;;;5041733;28;20398;-79
2021/03/08 08:20:21;;;;;;;3.13;1.70;;;;;;;;;;5049004;28;20032;-78
2021/03/08 08:22:53;;;;;;;2.60;1.40;;;;;;;;;;5050472;28;20295;-79
2021/03/08 08:25:19;;;;;;;2.83;1.60;;;;;;;;;;5044118;28;20041;-78
2021/03/08 08:27:44;;;;;;;5.07;1.80;;;;;;;;;;5044846;28;20036;-79
2021/03/08 08:30:10;;;;;;;3.60;1.90;;;;;;;;;;5061302;28;20100;-79
2021/03/08 08:32:56;;;;;;;3.50;1.67;;;;;;;;;;5029290;28;20043;-79
2021/03/08 08:35:23;;;;;;;2.80;1.50;;;;;;;;;;5061976;28;20037;-79
2021/03/08 08:38:06;;;;;;;4.72;1.77;;;;;;;;;;5060297;28;20040;-79
2021/03/08 08:40:35;;;;;;;3.30;1.70;;;;;;;;;;5061034;28;20128;-79
2021/03/08 08:43:27;;;;;;;2.85;1.75;;;;;;;;;;5059563;28;20044;-79
2021/03/08 08:45:52;;;;;;;3.70;1.55;;;;;;;;;;5058027;28;20041;-78
2021/03/08 08:48:19;;;;;;;3.23;1.50;;;;;;;;;;5059367;28;20028;-79
2021/03/08 08:50:54;;;;;;;3.75;1.80;;;;;;;;;;5042534;28;20029;-79
2021/03/08 08:53:35;;;;;;;2.83;1.70;;;;;;;;;;5059877;28;20116;-79
2021/03/08 08:56:01;;;;;;;3.22;1.70;;;;;;;;;;5060630;28;20025;-79
2021/03/08 08:58:30;;;;;;;3.08;1.90;;;;;;;;;;5061575;28;20104;-79
2021/03/08 09:01:15;;;;;;;2.83;1.65;;;;;;;;;;5060985;28;20045;-79
2021/03/08 09:03:59;;;;;;;4.00;2.00;;;;;;;;;;5058668;28;20492;-79
2021/03/08 09:06:47;;;;;;;2.58;1.40;;;;;;;;;;5058506;28;20037;-79
2021/03/08 09:09:32;;;;;;;2.20;1.35;;;;;;;;;;5057163;28;20112;-79
2021/03/08 09:12:07;;;;;;;2.75;1.63;;;;;;;;;;5058950;28;20025;-79
2021/03/08 09:14:46;;;;;;;3.05;1.77;;;;;;;;;;5041488;28;20071;-79
2021/03/08 09:17:28;;;;;;;4.03;1.73;;;;;;;;;;5058619;28;20446;-79
2021/03/08 09:19:57;;;;;;;2.75;1.45;;;;;;;;;;5058632;28;20052;-79
2021/03/08 09:22:22;;;;;;;2.65;1.58;;;;;;;;;;5042230;28;20045;-80
2021/03/08 09:24:53;;;;;;;2.83;1.50;;;;;;;;;;5059480;28;20044;-79
2021/03/08 09:27:22;;;;;;;2.25;1.40;;;;;;;;;;5059191;28;20029;-79
2021/03/08 09:29:47;;;;;;;2.70;1.60;;;;;;;;;;5058806;28;20029;-79
2021/03/08 09:32:13;;;;;;;3.13;1.70;;;;;;;;;;5059534;28;20060;-79
2021/03/08 09:34:38;;;;;;;3.03;1.50;;;;;;;;;;5057876;28;20033;-78
2021/03/08 09:37:03;;;;;;;2.90;1.40;;;;;;;;;;5058827;28;20075;-79
2021/03/08 09:39:29;;;;;;;2.53;1.50;;;;;;;;;;5058129;28;20051;-78
2021/03/08 09:41:54;;;;;;;2.67;1.57;;;;;;;;;;5063321;28;20096;-80
2021/03/08 09:44:19;;;;;;;3.10;1.70;;;;;;;;;;5050517;28;20388;-79
2021/03/08 09:46:55;;;;;;;3.40;1.80;;;;;;;;;;5050802;28;20125;-79
2021/03/08 09:49:20;;;;;;;3.03;1.50;;;;;;;;;;5046020;28;20035;-79
2021/03/08 09:51:45;;;;;;;2.43;1.60;;;;;;;;;;5062112;28;20115;-79
2021/03/08 09:54:11;;;;;;;2.27;1.33;;;;;;;;;;5063095;28;20078;-79
2021/03/08 09:56:40;;;;;;;2.80;1.43;;;;;;;;;;5043135;28;20110;-79
2021/03/08 09:59:08;;;;;;;3.40;1.50;;;;;;;;;;5043601;28;20044;-79
2021/03/08 10:01:33;;;;;;;2.70;1.40;;;;;;;;;;5042583;28;20033;-79
2021/03/08 10:03:59;;;;;;;2.97;1.50;;;;;;;;;;5043136;28;20040;-79
2021/03/08 10:06:31;;;;;;;2.20;1.20;;;;;;;;;;5059417;28;20053;-79
2021/03/08 10:08:57;;;;;;;2.25;1.48;;;;;;;;;;5059123;28;20037;-79
2021/03/08 10:11:29;;;;;;;2.90;1.50;;;;;;;;;;5043637;28;20033;-79
2021/03/08 10:13:54;;;;;;;2.95;1.48;;;;;;;;;;5064643;28;20025;-79
2021/03/08 10:16:24;;;;;;;3.27;1.50;;;;;;;;;;5061779;28;20502;-79
2021/03/08 10:18:49;;;;;;;2.25;1.35;;;;;;;;;;5028713;28;20033;-79
2021/03/08 10:21:15;;;;;;;2.70;1.60;;;;;;;;;;5062713;28;20055;-79
2021/03/08 10:23:40;;;;;;;2.63;1.57;;;;;;;;;;5046809;28;20060;-79
2021/03/08 10:26:07;;;;;;;2.87;1.50;;;;;;;;;;5062753;28;20024;-79
2021/03/08 10:28:45;;;;;;;2.75;1.40;;;;;;;;;;5062577;28;20033;-79
2021/03/08 10:31:20;;;;;;;2.95;1.50;;;;;;;;;;5062550;28;20060;-79
2021/03/08 10:33:50;;;;;;;2.60;1.60;;;;;;;;;;5062839;28;20033;-79
2021/03/08 10:36:21;;;;;;;2.33;1.23;;;;;;;;;;5062510;28;20033;-79
2021/03/08 10:38:52;;;;;;;3.08;1.55;;;;;;;;;;5038185;28;20044;-79
2021/03/08 10:41:19;;;;;;;2.70;1.40;;;;;;;;;;5028981;28;20029;-77
2021/03/08 10:43:44;;;;;;;;;;;;;;;;;;5060534;28;20029;-79
2021/03/08 10:46:09;;;;;;;2.93;1.47;;;;;;;;;;5060141;28;19962;-79
2021/03/08 10:48:36;;;;;;;2.60;1.40;;;;;;;;;;5042316;28;20065;-77
2021/03/08 10:51:01;;;;;;;4.53;1.40;;;;;;;;;;5059979;28;20056;-78
2021/03/08 10:53:27;;;;;;;2.63;1.43;;;;;;;;;;5042186;28;20522;-78
2021/03/08 10:55:52;;;;;;;2.37;1.50;;;;;;;;;;5049497;28;20047;-78
2021/03/08 10:58:32;;;;;;;3.23;1.30;;;;;;;;;;5023397;28;20092;-78
2021/03/08 11:01:05;;;;;;;2.28;1.50;;;;;;;;;;5063430;28;20400;-78
2021/03/08 11:03:41;;;;;;;2.60;1.40;;;;;;;;;;5043807;28;20435;-78
2021/03/08 11:06:10;;;;;;;2.97;1.50;;;;;;;;;;5048534;28;20037;-79
2021/03/08 11:08:38;;;;;;;2.85;1.50;;;;;;;;;;5059658;28;20124;-78
2021/03/08 11:11:16;;;;;;;3.13;1.42;;;;;;;;;;5044967;28;20116;-78
2021/03/08 11:13:41;;;;;;;3.53;1.40;;;;;;;;;;5008778;28;20052;-78
2021/03/08 11:16:11;;;;;;;2.97;1.47;;;;;;;;;;5060200;28;20476;-78
2021/03/08 11:18:36;;;;;;;2.67;1.30;;;;;;;;;;5062985;28;20036;-78
2021/03/08 11:21:20;;;;;;;2.37;1.10;;;;;;;;;;5044952;28;20048;-78
2021/03/08 11:23:46;;;;;;;3.42;1.45;;;;;;;;;;5056826;28;20468;-79
2021/03/08 11:26:11;;;;;;;2.47;1.50;;;;;;;;;;5037306;28;20033;-78
2021/03/08 11:28:38;;;;;;;3.77;1.63;;;;;;;;;;5061640;28;20090;-78
2021/03/08 11:31:04;;;;;;;3.65;1.50;;;;;;;;;;5061004;28;20044;-78
2021/03/08 11:33:34;;;;;;;2.20;1.33;;;;;;;;;;5062383;28;20084;-78
2021/03/08 11:35:59;;;;;;;2.80;1.20;;;;;;;;;;5042558;28;20040;-78
2021/03/08 11:38:25;;;;;;;3.37;1.57;;;;;;;;;;5026353;28;20041;-78
2021/03/08 11:40:50;;;;;;;3.90;1.40;;;;;;;;;;5034352;28;20060;-78
2021/03/08 11:43:20;;;;;;;2.60;1.33;;;;;;;;;;5038010;28;20118;-78
2021/03/08 11:45:45;;;;;;;2.83;1.40;;;;;;;;;;5023902;28;20036;-78
2021/03/08 11:48:10;;;;;;;3.10;1.27;;;;;;;;;;5062392;22;20417;-76
2021/03/08 11:50:36;;;;;;;2.77;1.57;;;;;;;;;;5004774;28;20037;-76
2021/03/08 11:53:02;;;;;;;2.90;1.40;;;;;;;;;;5018648;28;20745;-76
2021/03/08 11:55:27;;;;;;;2.38;1.45;;;;;;;;;;5015090;28;20079;-75
2021/03/08 11:57:53;;;;;;;2.50;1.50;;;;;;;;;;5010124;28;20033;-76
2021/03/08 12:00:20;;;;;;;2.77;1.30;;;;;;;;;;5050695;28;20036;-76
2021/03/08 12:02:45;;;;;;;3.05;1.50;;;;;;;;;;5035468;28;20139;-76
2021/03/08 12:05:11;;;;;;;2.10;1.10;;;;;;;;;;5033856;28;20136;-77
2021/03/08 12:07:37;;;;;;;3.40;1.43;;;;;;;;;;5035766;28;20033;-77
2021/03/08 12:10:03;;;;;;;2.67;1.40;;;;;;;;;;5035112;28;20040;-77
2021/03/08 12:12:29;;;;;;;2.95;1.50;;;;;;;;;;5031930;28;20029;-77
2021/03/08 12:14:54;;;;;;;2.97;1.40;;;;;;;;;;5030060;28;20095;-77
2021/03/08 12:17:19;;;;;;;2.93;1.30;;;;;;;;;;5035059;28;20115;-77
2021/03/08 12:19:45;;;;;;;2.40;1.30;;;;;;;;;;5025290;28;20125;-77
2021/03/08 12:22:10;;;;;;;2.47;1.23;;;;;;;;;;5030888;28;20031;-77
2021/03/08 12:24:35;;;;;;;2.57;1.33;;;;;;;;;;5017699;28;20456;-76
2021/03/08 12:27:01;;;;;;;3.40;1.30;;;;;;;;;;5050416;28;20124;-76
2021/03/08 12:29:26;;;;;;;2.53;1.37;;;;;;;;;;5052596;28;20069;-76
2021/03/08 12:31:51;;;;;;;3.07;1.30;;;;;;;;;;5033664;28;20119;-76
2021/03/08 12:34:17;;;;;;;3.10;1.50;;;;;;;;;;5035459;28;20545;-76
2021/03/08 12:36:42;;;;;;;2.03;1.13;;;;;;;;;;5050142;28;20118;-76
2021/03/08 12:39:07;;;;;;;2.87;1.40;;;;;;;;;;5014767;28;20063;-76
2021/03/08 12:41:33;;;;;;;3.20;1.20;;;;;;;;;;5014446;28;20064;-76
2021/03/08 12:43:59;;;;;;;2.30;1.30;;;;;;;;;;5031304;28;20037;-76
2021/03/08 12:46:25;;;;;;;3.73;1.50;;;;;;;;;;5005549;28;20482;-76
2021/03/08 12:48:51;;;;;;;2.67;1.30;;;;;;;;;;5031049;28;20131;-76
2021/03/08 12:51:17;;;;;;;3.13;1.30;;;;;;;;;;5030293;28;20466;-76
2021/03/08 12:53:43;;;;;;;2.60;1.30;;;;;;;;;;5050815;28;20389;-76
2021/03/08 12:56:08;;;;;;;2.93;1.40;;;;;;;;;;5051411;28;20044;-76
2021/03/08 12:58:34;;;;;;;3.23;1.40;;;;;;;;;;5050773;28;20052;-77
2021/03/08 13:00:59;;;;;;;3.30;1.30;;;;;;;;;;5032582;28;20504;-76
2021/03/08 13:03:25;;;;;;;2.83;1.40;;;;;;;;;;5034374;28;20535;-77
2021/03/08 13:05:51;;;;;;;2.53;1.33;;;;;;;;;;5035379;28;20465;-76
2021/03/08 13:08:16;;;;;;;2.92;1.50;;;;;;;;;;5046330;28;20044;-76
2021/03/08 13:10:42;;;;;;;2.43;1.30;;;;;;;;;;5031277;28;20033;-76
2021/03/08 13:13:07;;;;;;;2.60;1.30;;;;;;;;;;5015038;28;20467;-76
2021/03/08 13:15:32;;;;;;;3.40;1.33;;;;;;;;;;5016913;28;20128;-76
2021/03/08 13:17:58;;;;;;;3.20;1.37;;;;;;;;;;5020635;28;20165;-76
2021/03/08 13:20:23;;;;;;;2.37;1.10;;;;;;;;;;5038684;28;20083;-76
2021/03/08 13:22:48;;;;;;;3.70;1.30;;;;;;;;;;5038712;28;20167;-75
2021/03/08 13:25:14;;;;;;;2.63;1.30;;;;;;;;;;5038629;28;20120;-75
2021/03/08 13:27:40;;;;;;;5.45;1.33;;;;;;;;;;5027854;28;20380;-76
2021/03/08 13:30:10;;;;;;;2.90;1.40;;;;;;;;;;5020063;28;20061;-76
2021/03/08 13:32:36;;;;;;;3.58;1.33;;;;;;;;;;5018128;28;20038;-76
2021/03/08 13:35:01;;;;;;;2.33;1.20;;;;;;;;;;5002542;28;20025;-76
2021/03/08 13:37:27;;;;;;;3.17;1.43;;;;;;;;;;5018621;28;20205;-76
2021/03/08 13:39:52;;;;;;;2.80;1.50;;;;;;;;;;5002348;28;20484;-76
2021/03/08 13:42:18;;;;;;;2.47;1.20;;;;;;;;;;5038188;28;20056;-76
2021/03/08 13:44:43;;;;;;;3.00;1.10;;;;;;;;;;5025218;28;20037;-76
2021/03/08 13:47:08;;;;;;;3.03;1.33;;;;;;;;;;5038361;28;20507;-76
2021/03/08 13:49:34;;;;;;;3.27;1.40;;;;;;;;;;5038326;28;20372;-76
2021/03/08 13:51:59;;;;;;;2.70;1.30;;;;;;;;;;5038232;28;20108;-76
2021/03/08 13:54:24;;;;;;;2.40;1.17;;;;;;;;;;5054912;28;20064;-76
2021/03/08 13:56:50;;;;;;;3.17;1.50;;;;;;;;;;5038261;28;20056;-76
2021/03/08 13:59:16;;;;;;;2.60;1.30;;;;;;;;;;5025564;28;20039;-76
2021/03/08 14:01:41;;;;;;;2.72;1.30;;;;;;;;;;5054766;28;20082;-76
2021/03/08 14:04:07;;;;;;;3.27;1.43;;;;;;;;;;5034551;28;20041;-76
2021/03/08 14:06:32;;;;;;;2.97;1.30;;;;;;;;;;5021018;28;20028;-76
2021/03/08 14:08:57;;;;;;;3.00;1.13;;;;;;;;;;5054531;28;20045;-76
2021/03/08 14:11:23;;;;;;;2.50;1.10;;;;;;;;;;5037964;28;20446;-77
2021/03/08 14:13:48;;;;;;;3.30;1.37;;;;;;;;;;5037992;28;20029;-76
2021/03/08 14:16:13;;;;;;;2.23;1.20;;;;;;;;;;5054077;28;20108;-76
2021/03/08 14:18:39;;;;;;;2.90;1.30;;;;;;;;;;5037821;28;20492;-76
2021/03/08 14:21:04;;;;;;;3.50;1.47;;;;;;;;;;5054396;28;20056;-76
2021/03/08 14:23:30;;;;;;;2.77;1.20;;;;;;;;;;5034076;28;20037;-76
2021/03/08 14:25:55;;;;;;;2.57;1.37;;;;;;;;;;5034232;28;20069;-76
2021/03/08 14:28:20;;;;;;;2.90;1.30;;;;;;;;;;5049683;28;20056;-76
2021/03/08 14:30:46;;;;;;;2.27;1.13;;;;;;;;;;5020999;28;20115;-76
2021/03/08 14:33:11;;;;;;;2.93;1.40;;;;;;;;;;5054348;28;20464;-76
2021/03/08 14:35:36;;;;;;;2.53;1.30;;;;;;;;;;5038050;28;20072;-77
2021/03/08 14:38:02;;;;;;;2.47;1.37;;;;;;;;;;5055114;28;20068;-77
2021/03/08 14:40:27;;;;;;;2.93;1.30;;;;;;;;;;5038373;28;20036;-77
2021/03/08 14:42:57;;;;;;;2.80;1.30;;;;;;;;;;5037319;28;20029;-77
2021/03/08 14:45:22;;;;;;;3.42;1.23;;;;;;;;;;5020796;28;20037;-77
2021/03/08 14:47:48;;;;;;;3.07;1.30;;;;;;;;;;5037214;28;20049;-77
2021/03/08 14:50:13;;;;;;;3.60;1.33;;;;;;;;;;5037241;28;20075;-77